createdAt,value
2023-03-18T00:01:13.391Z,2.67
2023-03-18T00:03:40.826Z,2.54
2023-03-18T00:06:13.152Z,2.59
2023-03-18T00:08:41.267Z,2.53
2023-03-18T00:11:11.193Z,2.53
2023-03-18T00:13:39.806Z,2.53
2023-03-18T00:16:08.000Z,2.64
2023-03-18T00:18:36.438Z,2.62
2023-03-18T00:21:04.939Z,2.59
2023-03-18T00:23:33.419Z,2.56
2023-03-18T00:26:01.393Z,2.55
2023-03-18T00:28:29.477Z,2.56
2023-03-18T00:31:04.089Z,2.56
2023-03-18T00:33:31.736Z,2.58
2023-03-18T00:35:59.738Z,2.52
2023-03-18T00:38:26.932Z,2.52
2023-03-18T00:40:54.042Z,2.51
2023-03-18T00:43:23.183Z,2.44
2023-03-18T00:45:51.178Z,2.46
2023-03-18T00:48:18.438Z,2.38
2023-03-18T00:50:45.799Z,2.27
2023-03-18T00:53:13.185Z,2.16
2023-03-18T00:55:42.083Z,2.17
2023-03-18T00:58:10.622Z,2.24
2023-03-18T01:00:41.544Z,2.29
2023-03-18T01:03:08.984Z,2.28
2023-03-18T01:05:38.257Z,2.17
2023-03-18T01:08:05.778Z,2.12
2023-03-18T01:10:33.184Z,2.09
2023-03-18T01:13:00.841Z,2.12
2023-03-18T01:15:28.330Z,2.07
2023-03-18T01:17:57.060Z,2.04
2023-03-18T01:20:25.520Z,1.97
2023-03-18T01:22:53.177Z,2.02
2023-03-18T01:25:20.745Z,2.05
2023-03-18T01:27:49.143Z,2.02
2023-03-18T01:30:16.310Z,2.05
2023-03-18T01:32:44.036Z,1.95
2023-03-18T01:35:12.775Z,2.02
2023-03-18T01:37:42.138Z,2.12
2023-03-18T01:40:11.410Z,2.23
2023-03-18T01:42:39.406Z,2.26
2023-03-18T01:45:28.665Z,2.30
2023-03-18T01:47:58.208Z,2.39
2023-03-18T01:50:36.788Z,2.43
2023-03-18T01:53:12.485Z,2.37
2023-03-18T01:55:41.044Z,2.36
2023-03-18T01:58:14.055Z,2.43
2023-03-18T02:00:44.765Z,2.34
2023-03-18T02:03:13.007Z,2.40
2023-03-18T02:05:40.608Z,2.39
2023-03-18T02:08:08.243Z,2.41
2023-03-18T02:10:36.794Z,2.36
2023-03-18T02:13:06.831Z,2.38
2023-03-18T02:15:35.531Z,2.36
2023-03-18T02:18:07.493Z,2.44
2023-03-18T02:20:40.723Z,2.39
2023-03-18T02:23:27.308Z,2.42
2023-03-18T02:26:18.520Z,2.41
2023-03-18T02:28:46.354Z,2.34
2023-03-18T02:31:16.672Z,2.27
2023-03-18T02:33:44.803Z,2.31
2023-03-18T02:36:17.905Z,2.24
2023-03-18T02:38:46.581Z,2.23
2023-03-18T02:41:23.468Z,2.22
2023-03-18T02:43:52.327Z,2.24
2023-03-18T02:46:41.243Z,2.14
2023-03-18T02:49:09.307Z,2.15
2023-03-18T02:51:37.734Z,2.14
2023-03-18T02:54:13.859Z,2.07
2023-03-18T02:56:42.670Z,2.04
2023-03-18T02:59:11.173Z,1.94
2023-03-18T03:01:42.123Z,1.98
2023-03-18T03:04:10.315Z,1.93
2023-03-18T03:06:37.782Z,1.88
2023-03-18T03:09:06.558Z,1.83
2023-03-18T03:11:36.343Z,1.81
2023-03-18T03:14:05.624Z,1.80
2023-03-18T03:16:33.392Z,1.75
2023-03-18T03:19:00.867Z,1.70
2023-03-18T03:21:29.315Z,1.65
2023-03-18T03:23:56.454Z,1.69
2023-03-18T03:26:23.999Z,1.59
2023-03-18T03:28:51.677Z,1.49
2023-03-18T03:31:20.135Z,1.49
2023-03-18T03:33:47.774Z,1.51
2023-03-18T03:36:16.478Z,1.48
2023-03-18T03:38:44.129Z,1.40
2023-03-18T03:41:12.920Z,1.35
2023-03-18T03:43:40.937Z,1.30
2023-03-18T03:46:09.666Z,1.24
2023-03-18T03:48:38.195Z,1.12
2023-03-18T03:51:07.524Z,1.11
2023-03-18T03:53:36.110Z,1.00
2023-03-18T03:56:04.419Z,0.95
2023-03-18T03:58:31.545Z,0.95
2023-03-18T04:00:58.642Z,0.88
2023-03-18T04:03:26.052Z,0.92
2023-03-18T04:05:53.210Z,0.83
2023-03-18T04:08:22.564Z,0.96
2023-03-18T04:10:49.951Z,0.86
2023-03-18T04:13:17.071Z,0.81
2023-03-18T04:15:46.874Z,0.72
2023-03-18T04:18:15.171Z,0.65
2023-03-18T04:20:42.754Z,0.67
2023-03-18T04:23:10.301Z,0.65
2023-03-18T04:25:37.659Z,0.66
2023-03-18T04:28:04.888Z,0.64
2023-03-18T04:30:32.348Z,0.59
2023-03-18T04:33:01.494Z,0.63
2023-03-18T04:35:29.640Z,0.62
2023-03-18T04:37:56.880Z,0.68
2023-03-18T04:40:24.674Z,0.59
2023-03-18T04:42:52.382Z,0.53
2023-03-18T04:45:22.786Z,0.49
2023-03-18T04:47:50.835Z,0.51
2023-03-18T04:50:19.347Z,0.51
2023-03-18T04:52:47.257Z,0.52
2023-03-18T04:55:18.063Z,0.49
2023-03-18T04:57:46.348Z,0.50
2023-03-18T05:00:17.284Z,0.53
2023-03-18T05:02:45.534Z,0.52
2023-03-18T05:05:13.779Z,0.58
2023-03-18T05:07:42.385Z,0.57
2023-03-18T05:10:10.930Z,0.68
2023-03-18T05:12:38.608Z,0.70
2023-03-18T05:15:07.466Z,0.79
2023-03-18T05:17:35.932Z,0.93
2023-03-18T05:20:04.389Z,1.06
2023-03-18T05:22:31.546Z,1.13
2023-03-18T05:25:00.438Z,1.19
2023-03-18T05:27:29.748Z,1.33
2023-03-18T05:29:57.620Z,1.32
2023-03-18T05:32:26.461Z,1.40
2023-03-18T05:34:54.060Z,1.47
2023-03-18T05:37:21.135Z,1.51
2023-03-18T05:39:49.762Z,1.62
2023-03-18T05:42:17.421Z,1.73
2023-03-18T05:44:44.757Z,1.73
2023-03-18T05:47:14.285Z,1.76
2023-03-18T05:49:43.649Z,1.80
2023-03-18T05:52:12.307Z,1.82
2023-03-18T05:54:41.795Z,1.87
2023-03-18T05:57:09.312Z,2.03
2023-03-18T05:59:37.185Z,2.05
2023-03-18T06:02:04.728Z,2.18
2023-03-18T06:04:32.156Z,2.25
2023-03-18T06:06:59.297Z,2.35
2023-03-18T06:09:27.542Z,2.42
2023-03-18T06:11:55.105Z,2.49
2023-03-18T06:14:22.648Z,2.57
2023-03-18T06:16:50.522Z,2.60
2023-03-18T06:19:21.965Z,2.67
2023-03-18T06:21:49.302Z,2.80
2023-03-18T06:24:18.782Z,2.80
2023-03-18T06:26:46.509Z,2.83
2023-03-18T06:29:13.720Z,2.98
2023-03-18T06:31:40.782Z,3.08
2023-03-18T06:34:08.600Z,2.94
2023-03-18T06:36:36.030Z,3.09
2023-03-18T06:39:04.207Z,3.08
2023-03-18T06:41:31.632Z,3.09
2023-03-18T06:43:59.486Z,3.34
2023-03-18T06:46:29.525Z,3.70
2023-03-18T06:48:57.063Z,3.69
2023-03-18T06:51:24.739Z,3.78
2023-03-18T06:53:51.982Z,3.88
2023-03-18T06:56:19.437Z,4.05
2023-03-18T06:58:47.294Z,4.23
2023-03-18T07:01:14.422Z,4.44
2023-03-18T07:03:43.678Z,4.59
2023-03-18T07:06:10.815Z,4.65
2023-03-18T07:08:38.810Z,4.69
2023-03-18T07:11:07.247Z,4.71
2023-03-18T07:13:35.796Z,4.92
2023-03-18T07:16:03.729Z,5.10
2023-03-18T07:18:35.070Z,5.32
2023-03-18T07:21:02.095Z,5.54
2023-03-18T07:23:29.280Z,5.58
2023-03-18T07:25:57.501Z,5.65
2023-03-18T07:28:24.748Z,5.48
2023-03-18T07:30:54.158Z,5.68
2023-03-18T07:33:21.720Z,5.90
2023-03-18T07:35:48.798Z,6.08
2023-03-18T07:38:15.925Z,5.85
2023-03-18T07:40:43.281Z,5.95
2023-03-18T07:43:10.326Z,6.13
2023-03-18T07:45:37.490Z,6.06
2023-03-18T07:48:05.673Z,6.18
2023-03-18T07:50:32.819Z,6.36
2023-03-18T07:52:59.928Z,6.51
2023-03-18T07:55:28.687Z,6.57
2023-03-18T07:57:55.814Z,6.48
2023-03-18T08:00:23.238Z,6.44
2023-03-18T08:02:50.684Z,6.61
2023-03-18T08:05:19.403Z,6.57
2023-03-18T08:07:46.523Z,6.65
2023-03-18T08:10:14.933Z,6.66
2023-03-18T08:12:52.725Z,6.62
2023-03-18T08:15:22.598Z,6.68
2023-03-18T08:17:50.683Z,6.75
2023-03-18T08:20:18.157Z,6.86
2023-03-18T08:22:46.089Z,7.10
2023-03-18T08:25:14.704Z,7.11
2023-03-18T08:27:42.149Z,7.09
2023-03-18T08:30:10.858Z,7.16
2023-03-18T08:32:38.400Z,7.10
2023-03-18T08:35:05.925Z,7.28
2023-03-18T08:37:33.763Z,7.33
2023-03-18T08:40:02.332Z,7.55
2023-03-18T08:42:31.778Z,7.77
2023-03-18T08:44:59.335Z,7.81
2023-03-18T08:47:27.424Z,7.51
2023-03-18T08:49:55.129Z,7.80
2023-03-18T08:52:22.407Z,7.85
2023-03-18T08:54:50.324Z,8.09
2023-03-18T08:57:18.780Z,8.18
2023-03-18T08:59:46.935Z,8.14
2023-03-18T09:02:17.165Z,8.42
2023-03-18T09:04:45.126Z,8.26
2023-03-18T09:07:13.420Z,8.34
2023-03-18T09:09:43.850Z,8.53
2023-03-18T09:12:12.687Z,8.85
2023-03-18T09:14:44.012Z,8.93
2023-03-18T09:17:11.358Z,8.83
2023-03-18T09:19:38.570Z,8.70
2023-03-18T09:22:06.374Z,8.73
2023-03-18T09:24:33.373Z,8.88
2023-03-18T09:27:00.485Z,8.86
2023-03-18T09:29:27.850Z,9.05
2023-03-18T09:31:55.737Z,9.12
2023-03-18T09:34:23.353Z,9.31
2023-03-18T09:36:53.373Z,9.41
2023-03-18T09:39:21.823Z,9.31
2023-03-18T09:41:48.878Z,9.28
2023-03-18T09:44:23.978Z,9.46
2023-03-18T09:46:54.018Z,9.57
2023-03-18T09:49:57.648Z,9.78
2023-03-18T09:52:50.521Z,9.78
2023-03-18T09:55:25.822Z,9.83
2023-03-18T09:57:57.467Z,9.79
2023-03-18T10:00:36.956Z,9.80
2023-03-18T10:03:07.187Z,10.00
2023-03-18T10:05:48.354Z,10.26
2023-03-18T10:08:41.528Z,10.15
2023-03-18T10:11:17.325Z,10.11
2023-03-18T10:13:52.477Z,10.36
2023-03-18T10:16:26.371Z,10.25
2023-03-18T10:18:54.634Z,10.13
2023-03-18T10:21:27.682Z,10.01
2023-03-18T10:23:57.304Z,10.06
2023-03-18T10:26:33.384Z,10.27
2023-03-18T10:29:37.867Z,10.50
2023-03-18T10:32:09.417Z,10.65
2023-03-18T10:34:41.839Z,10.52
2023-03-18T10:37:44.093Z,10.17
2023-03-18T10:40:13.874Z,10.45
2023-03-18T10:42:41.868Z,10.62
2023-03-18T10:45:36.160Z,10.74
2023-03-18T10:48:13.658Z,11.08
2023-03-18T10:51:02.478Z,11.01
2023-03-18T10:53:39.283Z,11.21
2023-03-18T10:56:09.066Z,11.14
2023-03-18T10:58:41.445Z,11.05
2023-03-18T11:01:13.135Z,11.22
2023-03-18T11:04:06.778Z,11.57
2023-03-18T11:06:39.603Z,11.19
2023-03-18T11:09:10.657Z,11.39
2023-03-18T11:11:42.945Z,11.26
2023-03-18T11:14:17.866Z,11.49
2023-03-18T11:16:50.396Z,11.60
2023-03-18T11:19:35.431Z,11.27
2023-03-18T11:22:25.864Z,11.34
2023-03-18T11:25:17.200Z,11.38
2023-03-18T11:27:52.249Z,11.57
2023-03-18T11:30:38.641Z,11.63
2023-03-18T11:33:14.296Z,11.70
2023-03-18T11:35:53.776Z,11.90
2023-03-18T11:38:22.583Z,11.72
2023-03-18T11:40:50.008Z,11.50
2023-03-18T11:43:21.987Z,11.55
2023-03-18T11:45:54.268Z,11.56
2023-03-18T11:48:42.090Z,11.79
2023-03-18T11:51:35.024Z,11.96
2023-03-18T11:54:31.028Z,12.10
2023-03-18T11:57:07.527Z,12.40
2023-03-18T12:00:05.989Z,12.33
2023-03-18T12:02:36.260Z,12.34
2023-03-18T12:05:21.657Z,12.29
2023-03-18T12:08:09.996Z,12.51
2023-03-18T12:10:41.515Z,12.37
2023-03-18T12:13:57.009Z,12.25
2023-03-18T12:16:25.032Z,12.18
2023-03-18T12:19:11.585Z,12.04
2023-03-18T12:21:51.507Z,12.41
2023-03-18T12:24:37.497Z,12.35
2023-03-18T12:27:16.979Z,12.69
2023-03-18T12:30:12.693Z,12.55
2023-03-18T12:32:57.912Z,12.50
2023-03-18T12:35:30.862Z,12.46
2023-03-18T12:38:25.786Z,12.14
2023-03-18T12:41:57.781Z,12.51
2023-03-18T12:44:24.707Z,12.71
2023-03-18T12:47:06.802Z,12.71
2023-03-18T12:49:45.836Z,12.56
2023-03-18T12:52:40.098Z,12.76
2023-03-18T12:55:17.472Z,12.91
2023-03-18T12:57:55.102Z,13.07
2023-03-18T13:00:31.346Z,12.95
2023-03-18T13:03:07.728Z,13.07
2023-03-18T13:05:41.237Z,13.29
2023-03-18T13:08:46.055Z,13.61
2023-03-18T13:11:47.107Z,13.63
2023-03-18T13:14:18.080Z,13.26
2023-03-18T13:16:46.996Z,13.59
2023-03-18T13:19:14.307Z,13.66
2023-03-18T13:21:44.526Z,13.37
2023-03-18T13:24:34.295Z,13.48
2023-03-18T13:27:19.771Z,13.09
2023-03-18T13:29:49.968Z,13.36
2023-03-18T13:32:41.797Z,13.48
2023-03-18T13:35:16.005Z,13.49
2023-03-18T13:38:14.575Z,13.39
2023-03-18T13:40:53.934Z,13.62
2023-03-18T13:43:23.432Z,13.44
2023-03-18T13:45:52.751Z,13.72
2023-03-18T13:48:32.004Z,14.24
2023-03-18T13:51:00.250Z,14.13
2023-03-18T13:53:32.777Z,13.94
2023-03-18T13:56:03.436Z,13.86
2023-03-18T13:58:36.320Z,14.05
2023-03-18T14:01:33.047Z,14.00
2023-03-18T14:04:20.124Z,14.30
2023-03-18T14:06:51.847Z,14.24
2023-03-18T14:09:35.349Z,14.12
2023-03-18T14:12:21.358Z,14.33
2023-03-18T14:14:51.502Z,14.57
2023-03-18T14:17:49.300Z,14.34
2023-03-18T14:20:19.645Z,13.90
2023-03-18T14:22:49.037Z,13.70
2023-03-18T14:25:23.206Z,13.61
2023-03-18T14:27:54.897Z,13.73
2023-03-18T14:30:34.808Z,14.00
2023-03-18T14:33:18.168Z,14.08
2023-03-18T14:36:01.851Z,13.93
2023-03-18T14:38:52.526Z,13.95
2023-03-18T14:41:24.522Z,13.70
2023-03-18T14:44:31.151Z,13.48
2023-03-18T14:47:00.498Z,13.36
2023-03-18T14:49:59.777Z,13.44
2023-03-18T14:52:34.806Z,13.57
2023-03-18T14:55:08.848Z,13.40
2023-03-18T14:57:36.680Z,13.30
2023-03-18T15:00:06.931Z,13.34
2023-03-18T15:02:37.440Z,13.25
2023-03-18T15:05:06.537Z,13.30
2023-03-18T15:07:39.855Z,13.65
2023-03-18T15:10:11.031Z,13.55
2023-03-18T15:12:38.457Z,13.74
2023-03-18T15:15:07.176Z,13.38
2023-03-18T15:17:34.629Z,13.25
2023-03-18T15:20:01.856Z,13.14
2023-03-18T15:22:31.402Z,12.89
2023-03-18T15:25:04.687Z,12.72
2023-03-18T15:27:34.130Z,12.75
2023-03-18T15:30:05.308Z,12.73
2023-03-18T15:32:43.708Z,12.68
2023-03-18T15:35:10.993Z,12.88
2023-03-18T15:37:41.163Z,12.83
2023-03-18T15:40:23.433Z,12.88
2023-03-18T15:42:50.995Z,12.74
2023-03-18T15:45:22.218Z,12.41
2023-03-18T15:47:49.232Z,12.30
2023-03-18T15:50:22.479Z,12.06
2023-03-18T15:52:50.155Z,12.16
2023-03-18T15:55:29.430Z,12.20
2023-03-18T15:57:58.157Z,12.22
2023-03-18T16:00:25.878Z,12.03
2023-03-18T16:02:53.902Z,11.78
2023-03-18T16:05:25.627Z,11.88
2023-03-18T16:07:54.086Z,11.84
2023-03-18T16:10:23.797Z,11.97
2023-03-18T16:12:54.074Z,12.02
2023-03-18T16:15:24.085Z,11.97
2023-03-18T16:17:53.385Z,12.00
2023-03-18T16:20:28.261Z,11.97
2023-03-18T16:22:56.476Z,11.97
2023-03-18T16:25:26.801Z,11.89
2023-03-18T16:27:56.392Z,11.79
2023-03-18T16:30:29.688Z,11.68
2023-03-18T16:32:57.974Z,11.66
2023-03-18T16:35:27.833Z,11.54
2023-03-18T16:37:55.109Z,11.40
2023-03-18T16:40:24.864Z,11.15
2023-03-18T16:42:53.097Z,10.95
2023-03-18T16:45:28.181Z,10.89
2023-03-18T16:47:59.460Z,10.79
2023-03-18T16:50:34.141Z,10.61
2023-03-18T16:53:03.032Z,10.57
2023-03-18T16:55:30.195Z,10.53
2023-03-18T16:57:59.322Z,10.40
2023-03-18T17:00:32.988Z,10.24
2023-03-18T17:03:01.597Z,10.21
2023-03-18T17:05:29.046Z,10.12
2023-03-18T17:07:56.136Z,10.06
2023-03-18T17:10:24.781Z,9.99
2023-03-18T17:13:00.328Z,9.83
2023-03-18T17:15:35.140Z,9.71
2023-03-18T17:18:07.721Z,9.74
2023-03-18T17:20:34.757Z,9.72
2023-03-18T17:23:01.863Z,9.66
2023-03-18T17:25:30.413Z,9.65
2023-03-18T17:28:00.144Z,9.55
2023-03-18T17:30:30.386Z,9.43
2023-03-18T17:32:58.487Z,9.34
2023-03-18T17:35:25.712Z,9.35
2023-03-18T17:37:54.531Z,9.18
2023-03-18T17:40:23.210Z,9.20
2023-03-18T17:42:51.810Z,9.11
2023-03-18T17:45:34.955Z,9.07
2023-03-18T17:48:21.947Z,9.07
2023-03-18T17:50:51.421Z,9.06
2023-03-18T17:53:25.398Z,9.04
2023-03-18T17:55:53.631Z,8.98
2023-03-18T17:58:22.555Z,8.93
2023-03-18T18:00:50.571Z,8.86
2023-03-18T18:03:26.666Z,8.78
2023-03-18T18:05:55.145Z,8.70
2023-03-18T18:08:25.450Z,8.69
2023-03-18T18:10:54.626Z,8.71
2023-03-18T18:13:23.047Z,8.69
2023-03-18T18:15:51.094Z,8.62
2023-03-18T18:18:25.716Z,8.58
2023-03-18T18:20:57.199Z,8.57
2023-03-18T18:23:33.541Z,8.48
2023-03-18T18:26:14.548Z,8.48
2023-03-18T18:28:44.899Z,8.43
2023-03-18T18:31:13.145Z,8.37
2023-03-18T18:33:45.581Z,8.33
2023-03-18T18:36:16.423Z,8.40
2023-03-18T18:38:43.776Z,8.36
2023-03-18T18:41:10.880Z,8.33
2023-03-18T18:43:38.356Z,8.25
2023-03-18T18:46:14.740Z,8.17
2023-03-18T18:48:49.082Z,8.14
2023-03-18T18:51:18.544Z,8.04
2023-03-18T18:53:46.503Z,8.06
2023-03-18T18:56:14.866Z,8.04
2023-03-18T18:58:42.348Z,8.01
2023-03-18T19:01:11.823Z,8.10
2023-03-18T19:03:41.467Z,8.05
2023-03-18T19:06:22.090Z,8.04
2023-03-18T19:08:49.712Z,8.04
2023-03-18T19:11:16.826Z,8.02
2023-03-18T19:13:44.934Z,8.01
2023-03-18T19:16:28.633Z,7.94
2023-03-18T19:18:55.935Z,7.92
2023-03-18T19:21:23.686Z,7.87
2023-03-18T19:23:51.159Z,7.87
2023-03-18T19:26:19.535Z,7.79
2023-03-18T19:28:57.668Z,7.78
2023-03-18T19:31:30.420Z,7.72
2023-03-18T19:33:59.950Z,7.71
2023-03-18T19:36:29.410Z,7.67
2023-03-18T19:39:01.292Z,7.57
2023-03-18T19:41:29.277Z,7.57
2023-03-18T19:44:01.900Z,7.55
2023-03-18T19:46:38.604Z,7.52
2023-03-18T19:49:25.101Z,7.42
2023-03-18T19:51:52.991Z,7.45
2023-03-18T19:54:24.250Z,7.44
2023-03-18T19:56:52.565Z,7.26
2023-03-18T19:59:23.128Z,7.32
2023-03-18T20:01:52.342Z,7.37
2023-03-18T20:04:20.603Z,7.22
2023-03-18T20:06:47.759Z,7.15
2023-03-18T20:09:15.109Z,7.17
2023-03-18T20:11:42.553Z,7.15
2023-03-18T20:14:22.119Z,7.07
2023-03-18T20:16:49.722Z,7.03
2023-03-18T20:19:16.877Z,6.93
2023-03-18T20:21:44.150Z,6.93
2023-03-18T20:24:14.160Z,6.87
2023-03-18T20:26:41.262Z,6.84
2023-03-18T20:29:19.876Z,6.78
2023-03-18T20:31:47.481Z,6.73
2023-03-18T20:34:14.652Z,6.57
2023-03-18T20:36:42.600Z,6.59
2023-03-18T20:39:20.725Z,6.43
2023-03-18T20:41:48.490Z,6.51
2023-03-18T20:44:16.558Z,6.48
2023-03-18T20:46:43.657Z,6.48
2023-03-18T20:49:10.818Z,6.45
2023-03-18T20:51:40.751Z,6.36
2023-03-18T20:54:18.896Z,6.26
2023-03-18T20:56:46.995Z,6.21
2023-03-18T20:59:14.193Z,6.10
2023-03-18T21:01:41.867Z,6.06
2023-03-18T21:04:12.686Z,6.07
2023-03-18T21:06:43.384Z,5.95
2023-03-18T21:09:12.322Z,5.96
2023-03-18T21:11:39.727Z,5.97
2023-03-18T21:14:06.962Z,6.02
2023-03-18T21:16:37.691Z,6.04
2023-03-18T21:19:05.274Z,5.90
2023-03-18T21:21:38.315Z,5.88
2023-03-18T21:24:29.309Z,5.91
2023-03-18T21:27:04.808Z,5.83
2023-03-18T21:29:33.358Z,5.75
2023-03-18T21:32:02.462Z,5.65
2023-03-18T21:34:29.866Z,5.73
2023-03-18T21:36:57.360Z,5.74
2023-03-18T21:39:24.510Z,5.70
2023-03-18T21:41:52.273Z,5.66
2023-03-18T21:44:21.836Z,5.66
2023-03-18T21:46:48.941Z,5.70
2023-03-18T21:49:16.077Z,5.63
2023-03-18T21:51:44.640Z,5.69
2023-03-18T21:54:17.755Z,5.64
2023-03-18T21:56:45.162Z,5.53
2023-03-18T21:59:12.274Z,5.61
2023-03-18T22:01:40.078Z,5.63
2023-03-18T22:04:07.829Z,5.59
2023-03-18T22:06:34.991Z,5.54
2023-03-18T22:09:02.299Z,5.45
2023-03-18T22:11:30.439Z,5.38
2023-03-18T22:13:57.520Z,5.42
2023-03-18T22:16:25.312Z,5.43
2023-03-18T22:18:52.730Z,5.40
2023-03-18T22:21:24.361Z,5.36
2023-03-18T22:23:52.230Z,5.28
2023-03-18T22:26:21.339Z,5.31
2023-03-18T22:28:49.698Z,5.31
2023-03-18T22:31:26.370Z,5.27
2023-03-18T22:33:54.527Z,5.21
2023-03-18T22:36:21.931Z,4.99
2023-03-18T22:38:49.204Z,4.97
2023-03-18T22:41:22.292Z,4.89
2023-03-18T22:43:50.326Z,4.88
2023-03-18T22:46:18.212Z,4.74
2023-03-18T22:48:45.560Z,4.87
2023-03-18T22:51:28.238Z,4.87
2023-03-18T22:53:55.750Z,4.89
2023-03-18T22:56:23.327Z,4.91
2023-03-18T22:58:50.748Z,4.91
2023-03-18T23:01:24.768Z,4.87
2023-03-18T23:03:51.856Z,4.81
2023-03-18T23:06:23.643Z,4.80
2023-03-18T23:08:50.884Z,4.79
2023-03-18T23:11:20.011Z,4.76
2023-03-18T23:13:49.919Z,4.72
2023-03-18T23:16:20.442Z,4.69
2023-03-18T23:18:48.957Z,4.58
2023-03-18T23:21:17.595Z,4.62
2023-03-18T23:23:44.920Z,4.58
2023-03-18T23:26:13.037Z,4.69
2023-03-18T23:28:47.156Z,4.65
2023-03-18T23:31:15.765Z,4.64
2023-03-18T23:33:42.988Z,4.68
2023-03-18T23:36:10.657Z,4.58
2023-03-18T23:38:38.539Z,4.47
2023-03-18T23:41:06.309Z,4.49
2023-03-18T23:43:33.414Z,4.46
2023-03-18T23:46:01.824Z,4.56
2023-03-18T23:48:29.452Z,4.60
2023-03-18T23:50:56.648Z,4.53
2023-03-18T23:53:23.940Z,4.51
2023-03-18T23:55:51.123Z,4.54
2023-03-18T23:58:18.261Z,4.53
